Time;durP1;ratioP1;P1;durP2;ratioP2;P2;SDS_P1;SDS_P2;PMS_P1;PMS_P2;Temp;Humidity;BMP_temperature;BMP_pressure;BME280_temperature;BME280_humidity;BME280_pressure;Samples;Min_cycle;Max_cycle;Signal;HPM_P1;HPM_P2
2023/08/12 00:01:30;;;;;;;7.75;4.32;;;;;;;15.21;100.00;100999.13;5607341;31;33756;-68
2023/08/12 00:04:33;;;;;;;9.07;4.53;;;;;;;15.20;100.00;101002.00;5607359;31;34513;-68
2023/08/12 00:07:36;;;;;;;10.88;4.65;;;;;;;15.16;100.00;101004.19;5607319;31;34087;-68
2023/08/12 00:10:38;;;;;;;13.62;4.45;;;;;;;15.16;100.00;101003.34;5606956;31;34062;-68
2023/08/12 00:13:41;;;;;;;9.48;4.80;;;;;;;15.10;100.00;100996.06;5606853;31;33766;-68
2023/08/12 00:16:44;;;;;;;7.65;4.70;;;;;;;15.09;100.00;100992.56;5607130;31;34470;-68
2023/08/12 00:19:47;;;;;;;9.68;4.37;;;;;;;15.19;100.00;100994.97;5606744;31;35182;-68
2023/08/12 00:22:50;;;;;;;9.02;4.40;;;;;;;15.10;100.00;100994.19;5605852;31;33778;-68
2023/08/12 00:25:52;;;;;;;9.20;4.55;;;;;;;15.04;100.00;100996.78;5606860;31;34069;-68
2023/08/12 00:28:55;;;;;;;13.57;4.40;;;;;;;15.01;100.00;101000.66;5607195;31;34131;-67
2023/08/12 00:31:58;;;;;;;8.73;4.47;;;;;;;15.01;100.00;100989.13;5607148;31;33652;-68
2023/08/12 00:35:02;;;;;;;7.03;4.53;;;;;;;15.02;100.00;100996.13;5606595;31;34469;-68
2023/08/12 00:38:05;;;;;;;9.98;4.57;;;;;;;14.99;100.00;101001.84;5607482;31;33551;-68
2023/08/12 00:41:08;;;;;;;9.35;4.80;;;;;;;15.06;100.00;100992.91;5606979;31;33807;-67
2023/08/12 00:44:10;;;;;;;7.93;4.75;;;;;;;15.00;100.00;100995.50;5606402;31;34868;-68
2023/08/12 00:47:14;;;;;;;7.90;4.82;;;;;;;14.94;100.00;100994.38;5606994;31;34591;-68
2023/08/12 00:50:17;;;;;;;11.75;4.93;;;;;;;14.88;100.00;100988.91;5607029;31;33622;-68
2023/08/12 00:53:20;;;;;;;8.88;4.95;;;;;;;14.87;100.00;100990.75;5606192;31;34346;-67
2023/08/12 00:56:24;;;;;;;6.37;4.75;;;;;;;14.82;100.00;100989.63;5606914;31;33939;-68
2023/08/12 00:59:27;;;;;;;7.85;5.37;;;;;;;14.81;100.00;100993.34;5607052;31;33746;-68
2023/08/12 01:02:29;;;;;;;18.62;5.35;;;;;;;14.91;100.00;100989.37;5606887;31;33924;-68
2023/08/12 01:05:33;;;;;;;10.82;5.12;;;;;;;14.85;100.00;100989.28;5606855;31;34307;-68
2023/08/12 01:08:36;;;;;;;10.90;5.00;;;;;;;14.80;100.00;100989.84;5606811;31;34519;-68
2023/08/12 01:11:44;;;;;;;11.12;4.80;;;;;;;14.76;100.00;100991.22;5606669;31;34149;-67
2023/08/12 01:15:00;;;;;;;7.32;4.97;;;;;;;14.83;100.00;100989.47;5606824;31;34422;-68
2023/08/12 01:18:06;;;;;;;7.10;4.90;;;;;;;14.76;100.00;100991.22;5606760;31;33445;-68
2023/08/12 01:21:14;;;;;;;13.20;5.15;;;;;;;14.72;100.00;100996.06;5606724;31;33877;-68
2023/08/12 01:24:21;;;;;;;9.63;5.05;;;;;;;14.70;100.00;100997.25;5605840;31;34836;-68
2023/08/12 01:27:24;;;;;;;12.37;4.93;;;;;;;14.64;100.00;100997.97;5606971;31;34364;-67
2023/08/12 01:30:27;;;;;;;10.57;4.78;;;;;;;14.59;100.00;101008.34;5606665;31;34459;-69
2023/08/12 01:33:42;;;;;;;9.18;4.78;;;;;;;14.54;100.00;101005.38;5606673;31;34519;-68
2023/08/12 01:36:52;;;;;;;8.02;4.57;;;;;;;14.58;100.00;101017.38;5605664;31;33679;-68
2023/08/12 01:39:58;;;;;;;6.28;4.35;;;;;;;14.62;100.00;101013.37;5606504;31;33637;-68
2023/08/12 01:43:07;;;;;;;8.15;4.75;;;;;;;14.58;100.00;101009.34;5606305;31;34736;-68
2023/08/12 01:46:11;;;;;;;9.52;4.50;;;;;;;14.62;100.00;101000.00;5594667;31;34770;-68
2023/08/12 01:49:13;;;;;;;10.40;5.10;;;;;;;14.77;100.00;101008.88;5606507;31;33635;-66
2023/08/12 01:52:18;;;;;;;8.50;4.82;;;;;;;14.93;100.00;101006.06;5606484;31;34535;-68
2023/08/12 01:55:20;;;;;;;6.62;4.72;;;;;;;14.91;100.00;101001.94;5605060;31;35156;-69
2023/08/12 01:58:26;;;;;;;7.10;4.20;;;;;;;14.95;100.00;101009.41;5606313;31;33747;-69
2023/08/12 02:01:29;;;;;;;8.13;4.55;;;;;;;14.95;100.00;101003.22;5606148;31;33799;-68
2023/08/12 02:04:33;;;;;;;10.02;4.68;;;;;;;14.85;100.00;101003.47;5606165;31;33542;-67
2023/08/12 02:07:36;;;;;;;7.97;4.15;;;;;;;14.96;100.00;101000.34;5606100;31;33626;-67
2023/08/12 02:10:39;;;;;;;7.55;4.03;;;;;;;14.78;100.00;101000.69;5605165;31;33735;-68
2023/08/12 02:13:41;;;;;;;7.97;4.30;;;;;;;14.76;100.00;100992.00;5606106;31;34101;-67
2023/08/12 02:16:44;;;;;;;6.45;3.70;;;;;;;14.83;100.00;100996.66;5606220;31;34436;-68
2023/08/12 02:19:47;;;;;;;5.18;3.95;;;;;;;14.69;100.00;101001.78;5605831;31;33781;-68
2023/08/12 02:22:50;;;;;;;8.13;3.78;;;;;;;14.52;100.00;101002.91;5605776;31;34555;-67
2023/08/12 02:25:54;;;;;;;5.62;3.72;;;;;;;14.38;100.00;101006.31;5606240;31;33920;-67
2023/08/12 02:28:56;;;;;;;7.82;3.78;;;;;;;14.29;100.00;100997.53;5605627;31;33977;-67
2023/08/12 02:31:59;;;;;;;5.95;4.10;;;;;;;14.29;100.00;101007.34;5604824;31;33827;-68
2023/08/12 02:35:04;;;;;;;8.00;4.00;;;;;;;14.22;100.00;100999.25;5605636;31;34356;-67
2023/08/12 02:38:06;;;;;;;6.87;4.10;;;;;;;14.39;100.00;100986.63;5605534;31;33940;-68
2023/08/12 02:41:09;;;;;;;6.90;4.15;;;;;;;14.31;100.00;101000.03;5604554;31;34377;-67
2023/08/12 02:44:12;;;;;;;7.12;4.10;;;;;;;14.31;100.00;100995.50;5605173;31;34483;-68
2023/08/12 02:47:15;;;;;;;4.82;4.20;;;;;;;14.25;100.00;100993.53;5605382;31;33808;-67
2023/08/12 02:50:18;;;;;;;6.45;3.95;;;;;;;14.20;100.00;100995.91;5605554;31;33600;-67
2023/08/12 02:53:20;;;;;;;5.28;3.70;;;;;;;14.16;100.00;100996.44;5605279;31;33962;-67
2023/08/12 02:56:23;;;;;;;7.85;3.92;;;;;;;14.13;100.00;100997.62;5605598;31;33758;-67
2023/08/12 02:59:27;;;;;;;4.90;4.00;;;;;;;14.10;100.00;100997.13;5605270;31;34479;-67
2023/08/12 03:02:30;;;;;;;6.90;4.18;;;;;;;14.02;100.00;100989.19;5605014;31;33785;-68
2023/08/12 03:05:32;;;;;;;7.45;3.85;;;;;;;13.98;100.00;100995.88;5605434;31;33914;-67
2023/08/12 03:08:35;;;;;;;7.55;4.05;;;;;;;13.94;100.00;100998.06;5607907;31;34378;-67
2023/08/12 03:11:38;;;;;;;6.90;4.18;;;;;;;13.94;100.00;100998.06;5608371;31;33942;-67
2023/08/12 03:14:42;;;;;;;10.90;4.30;;;;;;;13.90;100.00;100986.06;5607200;31;33842;-67
2023/08/12 03:17:44;;;;;;;8.80;4.07;;;;;;;13.85;100.00;100989.25;5608065;31;34019;-68
2023/08/12 03:20:47;;;;;;;11.57;4.47;;;;;;;13.84;100.00;100992.13;5607869;31;33862;-67
2023/08/12 03:23:50;;;;;;;6.55;4.30;;;;;;;13.80;100.00;100998.78;5607742;31;34574;-68
2023/08/12 03:26:53;;;;;;;7.65;4.15;;;;;;;13.81;100.00;100995.12;5607848;31;33862;-67
2023/08/12 03:29:56;;;;;;;7.32;4.30;;;;;;;13.78;100.00;100996.31;5607764;31;33543;-67
2023/08/12 03:32:59;;;;;;;6.78;4.60;;;;;;;13.77;100.00;100994.62;5607773;31;33514;-68
2023/08/12 03:36:03;;;;;;;8.00;4.10;;;;;;;13.76;100.00;101006.31;5607965;31;33827;-68
2023/08/12 03:39:06;;;;;;;11.93;4.37;;;;;;;13.77;100.00;101001.81;5608095;31;34294;-68
2023/08/12 03:42:09;;;;;;;8.45;4.40;;;;;;;13.77;100.00;101009.81;5606668;31;33796;-67
2023/08/12 03:45:12;;;;;;;10.05;4.50;;;;;;;13.77;100.00;101013.31;5607499;31;33811;-68
2023/08/12 03:48:15;;;;;;;9.98;4.62;;;;;;;13.80;100.00;101010.28;5607575;31;33751;-68
2023/08/12 03:51:18;;;;;;;6.05;4.22;;;;;;;13.86;100.00;101020.28;5606633;31;34326;-67
2023/08/12 03:54:20;;;;;;;6.60;4.70;;;;;;;14.06;100.00;101019.84;5607489;31;33924;-67
2023/08/12 03:57:23;;;;;;;9.55;4.40;;;;;;;14.08;100.00;101025.84;5607478;31;33972;-67
2023/08/12 04:00:27;;;;;;;9.48;4.90;;;;;;;14.13;100.00;101018.16;5607359;31;34423;-67
2023/08/12 04:03:32;;;;;;;10.48;4.22;;;;;;;14.27;100.00;101025.41;5607723;31;33645;-68
2023/08/12 04:06:35;;;;;;;8.38;5.10;;;;;;;14.31;100.00;101021.38;5607265;31;33871;-67
2023/08/12 04:09:38;;;;;;;6.28;4.20;;;;;;;14.29;100.00;101026.87;5606428;31;33212;-68
2023/08/12 04:12:41;;;;;;;5.87;4.35;;;;;;;14.30;100.00;101028.53;5607434;31;33951;-68
2023/08/12 04:15:49;;;;;;;5.72;4.28;;;;;;;14.30;100.00;101025.03;5607449;31;34797;-69
2023/08/12 04:18:52;;;;;;;8.13;4.40;;;;;;;14.37;100.00;101027.88;5606558;31;33588;-67
2023/08/12 04:21:55;;;;;;;6.10;4.62;;;;;;;14.44;100.00;101039.50;5607427;31;33897;-67
2023/08/12 04:24:57;;;;;;;6.37;4.50;;;;;;;14.43;100.00;101032.50;5607225;31;34335;-68
2023/08/12 04:28:00;;;;;;;9.30;4.32;;;;;;;14.47;100.00;101041.84;5607245;31;33877;-68
2023/08/12 04:31:07;;;;;;;7.30;5.40;;;;;;;14.57;100.00;101045.91;5607604;31;33568;-68
2023/08/12 04:34:11;;;;;;;9.98;4.70;;;;;;;14.64;100.00;101046.03;5607586;31;33703;-67
2023/08/12 04:37:14;;;;;;;7.60;4.70;;;;;;;14.69;100.00;101049.00;5607202;31;33761;-68
2023/08/12 04:40:17;;;;;;;6.93;4.43;;;;;;;14.73;100.00;101045.81;5607404;31;33824;-68
2023/08/12 04:43:20;;;;;;;6.47;4.37;;;;;;;14.83;100.00;101050.91;5607023;31;34018;-68
2023/08/12 04:46:24;;;;;;;8.13;4.65;;;;;;;14.91;100.00;101047.34;5606886;31;34029;-68
2023/08/12 04:49:27;;;;;;;8.60;4.60;;;;;;;15.01;100.00;101040.72;5607344;31;33723;-68
2023/08/12 04:52:30;;;;;;;9.93;4.57;;;;;;;15.15;100.00;101047.94;5606868;31;33817;-68
2023/08/12 04:55:34;;;;;;;8.52;4.05;;;;;;;15.28;100.00;101057.19;5606972;31;33875;-68
2023/08/12 04:58:37;;;;;;;7.78;3.92;;;;;;;15.27;100.00;101056.38;5606727;31;34909;-68
2023/08/12 05:01:40;;;;;;;5.60;4.00;;;;;;;15.32;100.00;101048.62;5606733;31;33674;-68
2023/08/12 05:05:01;;;;;;;8.82;4.15;;;;;;;15.46;100.00;101057.69;5606880;31;33840;-68
2023/08/12 05:08:04;;;;;;;8.20;3.55;;;;;;;15.69;100.00;101061.13;5607000;31;33648;-68
2023/08/12 05:11:07;;;;;;;6.85;3.70;;;;;;;15.79;100.00;101050.16;5607181;31;33682;-67
2023/08/12 05:14:10;;;;;;;5.95;3.60;;;;;;;15.78;100.00;101056.53;5606034;31;33780;-68
2023/08/12 05:17:13;;;;;;;7.20;3.90;;;;;;;15.67;100.00;101048.97;5606742;31;33931;-68
2023/08/12 05:20:17;;;;;;;5.32;3.60;;;;;;;15.40;100.00;101053.87;5606872;31;33695;-68
2023/08/12 05:23:20;;;;;;;6.30;3.90;;;;;;;15.39;100.00;101054.09;5606629;31;34277;-68
2023/08/12 05:26:23;;;;;;;10.98;3.60;;;;;;;15.34;100.00;101059.16;5607068;31;33709;-68
2023/08/12 05:29:26;;;;;;;5.95;3.40;;;;;;;15.34;100.00;101057.31;5601340;31;34524;-68
2023/08/12 05:32:29;;;;;;;6.50;3.90;;;;;;;15.43;100.00;101061.56;5605732;31;33624;-67
2023/08/12 05:35:35;;;;;;;13.73;4.07;;;;;;;15.43;100.00;101064.25;5588814;31;34342;-68
2023/08/12 05:38:38;;;;;;;9.57;3.72;;;;;;;15.60;100.00;101059.56;5586889;31;33465;-68
2023/08/12 05:41:41;;;;;;;6.05;3.45;;;;;;;15.81;100.00;101058.84;5586608;31;33782;-68
2023/08/12 05:44:44;;;;;;;7.57;3.30;;;;;;;16.02;100.00;101065.06;5586566;31;33596;-68
2023/08/12 05:47:47;;;;;;;4.12;2.97;;;;;;;16.21;100.00;101060.19;5590462;31;33998;-68
2023/08/12 05:50:49;;;;;;;5.03;3.15;;;;;;;16.40;100.00;101060.41;5586256;31;34563;-68
2023/08/12 05:53:52;;;;;;;5.87;3.03;;;;;;;16.46;100.00;101059.63;5585612;31;34403;-67
2023/08/12 05:56:55;;;;;;;4.87;3.03;;;;;;;16.59;100.00;101058.16;5586251;31;33837;-67
2023/08/12 05:59:58;;;;;;;6.37;2.90;;;;;;;16.89;100.00;101057.81;5586013;31;33606;-67
2023/08/12 06:03:01;;;;;;;5.55;2.87;;;;;;;17.01;100.00;101054.63;5586776;31;33615;-67
2023/08/12 06:06:04;;;;;;;5.18;3.20;;;;;;;17.20;100.00;101054.78;5579699;31;34648;-68
2023/08/12 06:09:06;;;;;;;6.50;3.08;;;;;;;17.37;100.00;101058.88;5585696;31;33793;-68
2023/08/12 06:12:09;;;;;;;5.07;2.70;;;;;;;17.53;100.00;101063.06;5585969;31;33772;-68
2023/08/12 06:15:12;;;;;;;6.62;2.78;;;;;;;17.65;100.00;101058.03;5586169;31;33531;-68
2023/08/12 06:18:15;;;;;;;5.32;2.78;;;;;;;17.77;100.00;101053.75;5586011;31;33927;-68
2023/08/12 06:21:18;;;;;;;7.20;3.10;;;;;;;17.83;100.00;101058.34;5586160;31;33829;-67
2023/08/12 06:24:21;;;;;;;5.37;2.95;;;;;;;17.87;100.00;101061.44;5586021;31;33813;-68
2023/08/12 06:27:23;;;;;;;7.57;2.97;;;;;;;18.09;100.00;101061.16;5586044;31;34319;-68
2023/08/12 06:30:26;;;;;;;4.35;2.92;;;;;;;18.10;100.00;101054.78;5585821;31;33870;-69
2023/08/12 06:33:29;;;;;;;10.90;3.37;;;;;;;18.28;100.00;101056.06;5585929;31;33794;-69
2023/08/12 06:36:32;;;;;;;6.97;3.03;;;;;;;18.24;100.00;101061.84;5585160;31;33916;-69
2023/08/12 06:39:34;;;;;;;6.00;3.08;;;;;;;18.41;100.00;101059.63;5585743;31;33894;-68
2023/08/12 06:42:37;;;;;;;6.20;2.70;;;;;;;18.14;100.00;101061.38;5588191;31;34609;-69
2023/08/12 06:45:40;;;;;;;9.05;2.95;;;;;;;18.37;100.00;101052.16;5588344;31;33565;-68
2023/08/12 06:48:43;;;;;;;7.03;2.92;;;;;;;18.43;100.00;101049.50;5588143;31;34397;-67
2023/08/12 06:51:45;;;;;;;7.43;2.97;;;;;;;18.68;100.00;101047.09;5588251;31;34136;-67
2023/08/12 06:54:48;;;;;;;6.45;3.15;;;;;;;18.91;100.00;101050.22;5588130;31;34407;-67
2023/08/12 06:57:51;;;;;;;6.60;2.85;;;;;;;19.00;100.00;101049.00;5588254;31;33880;-67
2023/08/12 07:00:54;;;;;;;5.47;2.80;;;;;;;19.16;100.00;101052.31;5587380;31;33462;-67
2023/08/12 07:03:57;;;;;;;5.05;2.90;;;;;;;19.55;100.00;101051.47;5588059;31;33828;-67
2023/08/12 07:07:00;;;;;;;4.32;2.72;;;;;;;19.65;100.00;101057.25;5587914;31;34513;-68
2023/08/12 07:10:04;;;;;;;7.53;2.92;;;;;;;20.23;100.00;101060.78;5588165;31;34384;-69
2023/08/12 07:13:07;;;;;;;6.20;2.70;;;;;;;20.92;98.87;101050.00;5587482;31;33773;-68
2023/08/12 07:16:10;;;;;;;7.57;2.80;;;;;;;21.67;90.12;101057.03;5587602;31;33573;-68
2023/08/12 07:19:14;;;;;;;3.83;2.62;;;;;;;22.54;78.77;101054.94;5588020;31;34026;-69
2023/08/12 07:22:20;;;;;;;3.87;2.20;;;;;;;23.22;75.93;101055.34;5587015;31;33964;-69
2023/08/12 07:25:23;;;;;;;5.18;2.58;;;;;;;23.18;73.14;101053.34;5587959;31;33782;-69
2023/08/12 07:28:26;;;;;;;6.03;2.72;;;;;;;24.21;69.30;101051.63;5587864;31;34585;-68
2023/08/12 07:31:28;;;;;;;5.32;2.40;;;;;;;24.23;66.18;101063.06;5587990;31;33856;-68
2023/08/12 07:34:31;;;;;;;4.05;2.58;;;;;;;24.08;65.43;101060.00;5587824;31;34591;-69
2023/08/12 07:37:34;;;;;;;2.97;2.30;;;;;;;24.83;61.19;101057.13;5587895;31;33814;-69
2023/08/12 07:40:37;;;;;;;4.93;2.55;;;;;;;25.19;60.77;101055.00;5596162;31;33429;-70
2023/08/12 07:43:43;;;;;;;6.47;2.50;;;;;;;25.88;56.86;101056.31;5606333;31;34914;-69
2023/08/12 07:46:46;;;;;;;6.20;2.37;;;;;;;26.60;53.79;101054.19;5606210;31;33568;-70
2023/08/12 07:49:49;;;;;;;7.05;2.20;;;;;;;26.67;52.86;101048.53;5587618;31;34450;-70
2023/08/12 07:52:52;;;;;;;3.95;2.40;;;;;;;27.96;50.23;101059.84;5584398;31;33860;-70
2023/08/12 07:55:55;;;;;;;3.60;2.25;;;;;;;28.25;48.01;101060.25;5586721;31;33820;-70
2023/08/12 07:58:57;;;;;;;7.18;2.20;;;;;;;27.81;48.42;101051.59;5587517;31;33929;-71
2023/08/12 08:02:00;;;;;;;3.62;2.22;;;;;;;27.70;48.67;101047.16;5587297;31;34166;-70
2023/08/12 08:05:04;;;;;;;4.35;2.37;;;;;;;28.52;45.14;101046.38;5586619;31;34493;-69
2023/08/12 08:08:06;;;;;;;4.10;2.53;;;;;;;27.11;48.13;101054.66;5586862;31;34575;-69
2023/08/12 08:11:10;;;;;;;3.17;2.08;;;;;;;28.60;45.30;101050.50;5587157;31;34573;-69
2023/08/12 08:14:13;;;;;;;4.72;2.03;;;;;;;29.44;42.73;101048.06;5586867;31;34531;-69
2023/08/12 08:17:16;;;;;;;4.45;2.10;;;;;;;29.33;42.30;101043.75;5587210;31;33615;-68
2023/08/12 08:20:18;;;;;;;7.72;2.12;;;;;;;28.12;44.19;101047.13;5586980;31;34194;-70
2023/08/12 08:23:21;;;;;;;3.45;2.20;;;;;;;29.70;41.41;101040.63;5587188;31;35252;-71
2023/08/12 08:26:25;;;;;;;4.53;2.03;;;;;;;28.75;43.15;101043.19;5586931;31;33573;-70
2023/08/12 08:29:28;;;;;;;4.30;1.73;;;;;;;29.34;39.85;101048.91;5586217;31;34906;-68
2023/08/12 08:32:31;;;;;;;5.68;1.90;;;;;;;29.03;40.23;101047.28;5587086;31;34532;-69
2023/08/12 08:35:34;;;;;;;4.40;1.92;;;;;;;28.97;41.09;101045.62;5586797;31;33806;-69
2023/08/12 08:38:37;;;;;;;2.80;1.92;;;;;;;30.09;39.96;101048.97;5587101;31;33843;-70
2023/08/12 08:41:40;;;;;;;2.95;1.95;;;;;;;30.56;39.05;101046.53;5586861;31;33858;-70
2023/08/12 08:44:45;;;;;;;4.18;1.80;;;;;;;32.10;37.06;101042.00;5594110;31;34564;-70
2023/08/12 08:47:51;;;;;;;3.70;1.90;;;;;;;31.75;36.67;101038.62;5601570;31;33611;-70
2023/08/12 08:50:54;;;;;;;3.28;2.05;;;;;;;31.26;37.13;101043.53;5605383;31;34815;-71
2023/08/12 08:53:57;;;;;;;3.55;2.00;;;;;;;32.46;36.02;101040.44;5606820;31;34459;-70
2023/08/12 08:57:06;;;;;;;6.72;1.90;;;;;;;31.95;35.26;101039.50;5605562;31;33968;-70
2023/08/12 09:00:24;;;;;;;;;;;;;;;31.00;37.22;101038.25;5606905;31;34677;-70
2023/08/12 09:03:27;;;;;;;7.05;2.12;;;;;;;32.53;35.01;101040.06;5600683;31;33712;-70
2023/08/12 09:06:31;;;;;;;4.43;1.90;;;;;;;32.12;34.76;101042.56;5595735;31;33178;-69
2023/08/12 09:09:36;;;;;;;4.68;2.10;;;;;;;32.11;35.33;101041.75;5594893;31;34097;-69
2023/08/12 09:12:39;;;;;;;5.82;2.12;;;;;;;32.19;34.66;101030.13;5586193;31;34227;-69
2023/08/12 09:15:42;;;;;;;4.87;1.80;;;;;;;33.16;33.21;101026.72;5585013;31;34373;-70
2023/08/12 09:18:44;;;;;;;4.10;1.80;;;;;;;32.66;33.82;101023.69;5591907;31;33794;-69
2023/08/12 09:21:54;;;;;;;3.50;2.08;;;;;;;32.78;33.03;101023.19;5590001;31;34009;-69
2023/08/12 09:24:58;;;;;;;4.25;2.12;;;;;;;33.15;32.90;101020.41;5585770;31;33794;-69
2023/08/12 09:28:01;;;;;;;7.32;2.20;;;;;;;33.99;31.29;101022.84;5586287;31;33902;-69
2023/08/12 09:31:04;;;;;;;3.85;1.65;;;;;;;32.18;33.48;101017.50;5603001;31;33832;-70
2023/08/12 09:34:06;;;;;;;6.43;1.90;;;;;;;32.60;32.68;101013.84;5606143;31;33824;-71
2023/08/12 09:37:11;;;;;;;4.20;1.90;;;;;;;33.34;32.44;101014.00;5594659;31;33871;-70
2023/08/12 09:40:15;;;;;;;6.37;1.87;;;;;;;34.12;31.75;101015.72;5589355;31;33840;-71
2023/08/12 09:43:17;;;;;;;4.35;1.90;;;;;;;34.34;31.15;101011.09;5586329;31;33946;-69
2023/08/12 09:46:24;;;;;;;3.42;1.80;;;;;;;35.34;29.47;101003.34;5601547;31;34906;-71
2023/08/12 09:49:27;;;;;;;4.37;1.70;;;;;;;33.87;31.28;101001.38;5596393;31;33867;-71
2023/08/12 09:52:30;;;;;;;2.45;1.60;;;;;;;34.67;30.41;101000.66;5589810;31;34619;-71
2023/08/12 09:55:35;;;;;;;3.37;1.95;;;;;;;34.87;30.64;101002.91;5600003;31;32714;-70
2023/08/12 09:58:39;;;;;;;3.75;1.80;;;;;;;34.50;29.78;100995.00;5604214;31;33956;-71
2023/08/12 10:01:44;;;;;;;6.45;1.75;;;;;;;35.03;29.93;101000.56;5597594;31;33893;-70
2023/08/12 10:04:50;;;;;;;3.45;1.80;;;;;;;33.82;31.10;100990.47;5600894;31;33580;-71
2023/08/12 10:07:54;;;;;;;5.25;2.20;;;;;;;35.05;29.73;100989.22;5595490;31;33725;-70
2023/08/12 10:10:57;;;;;;;2.30;1.60;;;;;;;34.23;29.88;100973.88;5592293;31;34104;-70
2023/08/12 10:14:14;;;;;;;6.75;1.67;;;;;;;35.97;27.58;100971.72;5596798;31;34851;-70
2023/08/12 10:17:17;;;;;;;4.32;1.60;;;;;;;35.59;28.45;100983.28;5596897;31;33537;-70
2023/08/12 10:20:38;;;;;;;2.28;1.50;;;;;;;34.01;30.52;100974.62;5596097;31;34439;-70
2023/08/12 10:23:41;;;;;;;2.87;1.70;;;;;;;34.72;28.46;100981.25;5595662;31;35152;-70
2023/08/12 10:26:49;;;;;;;3.72;1.77;;;;;;;36.99;26.25;100976.34;5594067;31;34710;-70
2023/08/12 10:29:52;;;;;;;1.70;1.40;;;;;;;36.14;27.07;100967.03;5588340;31;33832;-71
2023/08/12 10:32:55;;;;;;;4.55;1.60;;;;;;;37.14;26.17;100974.22;5594138;31;35261;-69
2023/08/12 10:35:58;;;;;;;3.70;1.70;;;;;;;32.84;30.12;100961.53;5593719;31;34344;-69
2023/08/12 10:39:02;;;;;;;2.40;1.40;;;;;;;35.98;27.13;100965.03;5595993;31;34330;-71
2023/08/12 10:42:05;;;;;;;4.85;1.65;;;;;;;35.98;26.79;100962.28;5591056;31;32306;-70
2023/08/12 10:45:09;;;;;;;4.55;1.48;;;;;;;37.12;25.63;100957.97;5598482;31;33902;-69
2023/08/12 10:48:22;;;;;;;3.58;1.52;;;;;;;37.89;21.65;100959.50;5592343;31;33889;-70
2023/08/12 10:51:40;;;;;;;2.10;1.45;;;;;;;37.28;22.41;100955.44;5590836;31;33723;-70
2023/08/12 10:54:43;;;;;;;1.35;1.15;;;;;;;38.28;21.37;100955.47;5595600;31;35065;-69
2023/08/12 10:57:47;;;;;;;2.40;1.42;;;;;;;37.99;20.64;100953.59;5605032;31;34588;-69
2023/08/12 11:00:54;;;;;;;2.78;1.30;;;;;;;38.11;20.89;100942.56;5605294;31;34509;-70
2023/08/12 11:03:58;;;;;;;2.12;1.42;;;;;;;38.17;20.62;100940.41;5605119;31;34281;-70
2023/08/12 11:07:15;;;;;;;5.28;1.40;;;;;;;39.87;19.40;100946.25;5605158;31;35029;-70
2023/08/12 11:10:25;;;;;;;1.92;1.40;;;;;;;38.63;20.85;100934.59;5605158;31;34538;-69
2023/08/12 11:13:28;;;;;;;4.43;1.50;;;;;;;39.25;20.48;100930.78;5603353;31;34376;-68
2023/08/12 11:16:37;;;;;;;2.28;1.50;;;;;;;39.55;19.98;100931.38;5599967;31;33751;-70
2023/08/12 11:19:42;;;;;;;3.15;1.60;;;;;;;38.37;22.28;100920.16;5604463;31;33657;-69
2023/08/12 11:22:44;;;;;;;2.42;1.40;;;;;;;38.99;21.92;100919.19;5603868;31;33890;-69
2023/08/12 11:25:49;;;;;;;1.77;1.48;;;;;;;35.95;25.80;100919.56;5602852;31;34497;-69
2023/08/12 11:28:53;;;;;;;1.95;1.40;;;;;;;36.81;24.12;100904.84;5596464;31;33636;-70
2023/08/12 11:31:56;;;;;;;3.47;1.40;;;;;;;39.83;22.05;100909.22;5607747;31;34788;-70
2023/08/12 11:34:59;;;;;;;2.12;1.30;;;;;;;39.19;22.06;100911.91;5606662;31;34208;-71
2023/08/12 11:38:04;;;;;;;2.08;1.50;;;;;;;38.64;22.45;100899.34;5593364;31;35302;-70
2023/08/12 11:41:07;;;;;;;3.08;1.80;;;;;;;38.76;23.12;100902.16;5607653;31;33894;-70
2023/08/12 11:44:17;;;;;;;2.37;1.52;;;;;;;39.51;22.71;100906.25;5606338;31;34559;-71
2023/08/12 11:47:19;;;;;;;5.28;1.62;;;;;;;38.35;23.65;100891.97;5606920;31;34206;-71
2023/08/12 11:50:26;;;;;;;2.35;1.50;;;;;;;40.57;21.93;100896.62;5607116;31;33666;-70
2023/08/12 11:53:30;;;;;;;3.85;1.70;;;;;;;41.78;20.50;100895.59;5606919;31;33794;-70
2023/08/12 11:56:33;;;;;;;3.60;1.50;;;;;;;39.55;22.49;100893.25;5605656;31;34436;-70
2023/08/12 11:59:37;;;;;;;2.42;1.55;;;;;;;42.66;19.32;100898.56;5606938;31;33770;-69
2023/08/12 12:02:45;;;;;;;6.93;1.62;;;;;;;38.93;21.87;100892.81;5606256;31;34017;-69
2023/08/12 12:05:48;;;;;;;2.65;1.60;;;;;;;40.06;21.63;100878.91;5607297;31;33932;-69
2023/08/12 12:08:52;;;;;;;4.90;1.62;;;;;;;37.49;23.80;100875.22;5607110;31;34449;-69
2023/08/12 12:11:55;;;;;;;2.70;1.67;;;;;;;38.57;23.74;100871.37;5607316;31;33549;-69
2023/08/12 12:14:58;;;;;;;3.05;1.60;;;;;;;40.63;21.55;100865.41;5606186;31;33905;-68
2023/08/12 12:18:01;;;;;;;2.10;1.45;;;;;;;40.30;21.03;100868.50;5607036;31;34375;-69
2023/08/12 12:21:03;;;;;;;4.32;1.58;;;;;;;40.23;21.29;100868.28;5607064;31;33727;-69
2023/08/12 12:24:08;;;;;;;3.33;1.55;;;;;;;41.60;20.19;100861.00;5607052;31;33889;-70
2023/08/12 12:27:11;;;;;;;1.60;1.40;;;;;;;41.11;20.35;100858.69;5607287;31;33927;-69
2023/08/12 12:30:15;;;;;;;5.82;1.35;;;;;;;39.87;20.94;100857.34;5607073;31;33845;-68
2023/08/12 12:33:18;;;;;;;3.05;1.60;;;;;;;39.72;21.51;100853.31;5607358;31;33789;-68
2023/08/12 12:36:21;;;;;;;7.55;1.60;;;;;;;38.85;22.53;100849.34;5606430;31;34890;-68
2023/08/12 12:39:23;;;;;;;4.53;1.90;;;;;;;40.32;20.95;100840.34;5589772;31;34188;-70
2023/08/12 12:42:26;;;;;;;2.53;1.70;;;;;;;41.45;21.16;100845.94;5587072;31;33894;-69
2023/08/12 12:45:29;;;;;;;2.87;1.50;;;;;;;42.16;20.40;100830.72;5586247;31;34030;-68
2023/08/12 12:48:32;;;;;;;3.28;1.60;;;;;;;43.51;18.14;100836.53;5587116;31;33757;-68
2023/08/12 12:51:34;;;;;;;2.30;1.65;;;;;;;42.79;18.59;100841.41;5588849;31;33926;-69
2023/08/12 12:54:37;;;;;;;2.22;1.30;;;;;;;40.86;20.14;100831.41;5587119;31;34482;-69
2023/08/12 12:57:40;;;;;;;4.60;1.55;;;;;;;43.34;18.92;100837.88;5587040;31;34157;-69
2023/08/12 13:00:43;;;;;;;2.05;1.60;;;;;;;43.81;18.54;100821.72;5587169;31;33780;-70
2023/08/12 13:03:46;;;;;;;1.67;1.58;;;;;;;40.82;20.07;100825.75;5586191;31;33610;-68
2023/08/12 13:06:49;;;;;;;2.75;1.42;;;;;;;42.17;18.93;100817.56;5586885;31;33783;-69
2023/08/12 13:09:51;;;;;;;2.70;1.55;;;;;;;43.69;17.73;100820.78;5586880;31;34397;-70
2023/08/12 13:12:54;;;;;;;3.33;1.40;;;;;;;43.42;18.46;100812.84;5605250;31;33769;-69
2023/08/12 13:15:57;;;;;;;2.70;1.50;;;;;;;44.15;18.58;100812.12;5605585;31;34444;-69
2023/08/12 13:19:00;;;;;;;1.95;1.52;;;;;;;46.93;15.79;100813.03;5607035;31;34861;-70
2023/08/12 13:22:02;;;;;;;1.65;1.33;;;;;;;45.42;17.20;100804.72;5594835;31;33915;-69
2023/08/12 13:25:06;;;;;;;2.53;1.20;;;;;;;42.20;19.14;100800.09;5602892;31;33826;-69
2023/08/12 13:28:09;;;;;;;3.50;1.50;;;;;;;39.68;21.76;100788.50;5605047;31;34443;-68
2023/08/12 13:31:12;;;;;;;3.37;1.52;;;;;;;40.51;21.05;100790.41;5603731;31;34580;-70
2023/08/12 13:34:14;;;;;;;3.72;1.62;;;;;;;39.15;22.74;100791.66;5606427;31;33812;-69
2023/08/12 13:37:17;;;;;;;4.03;1.80;;;;;;;40.46;21.35;100779.53;5606593;31;34192;-70
2023/08/12 13:40:20;;;;;;;4.87;1.83;;;;;;;42.29;20.13;100787.53;5606601;31;34505;-69
2023/08/12 13:43:23;;;;;;;3.28;1.70;;;;;;;42.38;19.94;100785.31;5606470;31;34407;-67
2023/08/12 13:46:25;;;;;;;3.37;1.40;;;;;;;39.01;22.44;100789.25;5605991;31;33990;-68
2023/08/12 13:49:28;;;;;;;2.65;1.60;;;;;;;40.63;21.29;100776.41;5592027;31;33809;-70
2023/08/12 13:52:31;;;;;;;3.90;1.60;;;;;;;40.89;21.66;100775.84;5605817;31;34810;-68
2023/08/12 13:55:34;;;;;;;3.90;1.40;;;;;;;42.89;19.53;100774.59;5606217;31;34585;-68
2023/08/12 13:58:37;;;;;;;2.47;1.87;;;;;;;42.56;19.80;100768.84;5606182;31;33736;-70
2023/08/12 14:01:40;;;;;;;2.15;1.45;;;;;;;45.51;17.56;100770.72;5605932;31;34843;-69
2023/08/12 14:04:45;;;;;;;3.40;1.48;;;;;;;42.97;19.17;100774.69;5605891;31;34478;-69
2023/08/12 14:07:47;;;;;;;3.33;1.70;;;;;;;42.82;19.86;100768.91;5598859;31;34001;-69
2023/08/12 14:10:50;;;;;;;3.50;1.40;;;;;;;39.67;23.19;100759.13;5598762;31;33900;-70